Flaxton, North Dakota
Current Conditions -  °F | °C
As of 10:00 AM on Thursday 27 Nov 2014 (Local Time) from CYEN Reporting Station
Light Snow Light Snow  
Wind Chill: -6°   Ceiling: 1100
Heat Index:   Visibility: 5mi
Dew Point:   Wind: 10mph
Humidity: 85%   Direction: 100°E
Pressure: 30.12"   Gusts: NA
Location:  48.9°N, 102.39°W
Report Text: CYEN 271600Z 10009KT 5SM -SN BR OVC011 M13/M15 A3012 RMK SC8SLP262
Loading
Personal Weather Stations






























Interactive Weather Map New forecast layout! Learn more

10-Day Weather Forecast

Advertisements
Track Severe Weather on mobile